TimeEDT,TemperatureF,Dew PointF,Humidity,Sea Level PressureIn,VisibilityMPH,Wind Direction,Wind SpeedMPH,Gust SpeedMPH,PrecipitationIn,Events,Conditions,WindDirDegrees,DateUTC
12:54 AM,75.0,72.0,90,30.13,5.0,Calm,Calm,-,N/A,,Clear,0,2012-10-04 04:54:00
1:54 AM,75.9,72.0,87,30.13,7.0,SSW,4.6,-,N/A,,Mostly Cloudy,210,2012-10-04 05:54:00
2:54 AM,75.9,72.0,87,30.12,8.0,South,3.5,-,N/A,,Mostly Cloudy,190,2012-10-04 06:54:00
3:54 AM,75.0,72.0,90,30.12,6.0,Calm,Calm,-,N/A,,Partly Cloudy,0,2012-10-04 07:54:00
4:54 AM,75.9,72.0,87,30.12,7.0,Calm,Calm,-,N/A,,Mostly Cloudy,0,2012-10-04 08:54:00
5:54 AM,75.0,72.0,90,30.13,6.0,Calm,Calm,-,N/A,,Partly Cloudy,0,2012-10-04 09:54:00
6:40 AM,75.2,71.6,89,30.13,5.0,Calm,Calm,-,N/A,,Scattered Clouds,0,2012-10-04 10:40:00
6:54 AM,75.0,72.0,90,30.13,5.0,Calm,Calm,-,N/A,,Scattered Clouds,0,2012-10-04 10:54:00
7:13 AM,75.2,71.6,89,30.12,2.5,Calm,Calm,-,N/A,,Scattered Clouds,0,2012-10-04 11:13:00
7:43 AM,75.2,71.6,89,30.13,3.0,Calm,Calm,-,N/A,,Scattered Clouds,0,2012-10-04 11:43:00
7:51 AM,75.2,71.6,89,30.14,3.0,SW,4.6,-,N/A,,Mostly Cloudy,220,2012-10-04 11:51:00
7:54 AM,75.9,73.0,91,30.14,4.0,SW,5.8,-,N/A,,Mostly Cloudy,230,2012-10-04 11:54:00
8:35 AM,77.0,73.4,89,30.14,5.0,SW,3.5,-,N/A,,Mostly Cloudy,230,2012-10-04 12:35:00
8:54 AM,77.0,73.0,88,30.15,6.0,WSW,3.5,-,N/A,,Overcast,240,2012-10-04 12:54:00
9:54 AM,78.1,72.0,81,30.14,9.0,Calm,Calm,-,N/A,,Overcast,0,2012-10-04 13:54:00
10:54 AM,81.0,71.1,72,30.14,10.0,West,8.1,-,N/A,,Mostly Cloudy,280,2012-10-04 14:54:00
11:54 AM,82.9,66.9,58,30.14,10.0,West,6.9,-,N/A,,Mostly Cloudy,270,2012-10-04 15:54:00
12:54 PM,84.0,63.0,49,30.11,10.0,SW,5.8,-,N/A,,Scattered Clouds,220,2012-10-04 16:54:00
1:54 PM,82.0,62.1,51,30.10,10.0,SSW,4.6,-,N/A,,Clear,210,2012-10-04 17:54:00
2:54 PM,81.0,59.0,47,30.10,10.0,WSW,10.4,18.4,N/A,,Scattered Clouds,250,2012-10-04 18:54:00
3:54 PM,79.0,64.0,60,30.09,10.0,WSW,5.8,-,N/A,,Clear,240,2012-10-04 19:54:00
4:54 PM,79.0,64.9,62,30.08,10.0,SSW,6.9,-,N/A,,Clear,210,2012-10-04 20:54:00
5:54 PM,78.1,63.0,60,30.08,10.0,West,8.1,-,N/A,,Clear,260,2012-10-04 21:54:00
6:54 PM,73.0,64.9,76,30.09,10.0,WSW,4.6,-,N/A,,Clear,240,2012-10-04 22:54:00
7:54 PM,72.0,64.9,78,30.09,10.0,West,4.6,-,N/A,,Clear,260,2012-10-04 23:54:00
8:54 PM,71.1,64.9,81,30.10,10.0,West,3.5,-,N/A,,Clear,270,2012-10-05 00:54:00
9:54 PM,71.1,64.9,81,30.11,10.0,WNW,3.5,-,N/A,,Clear,300,2012-10-05 01:54:00
10:54 PM,70.0,64.0,81,30.12,10.0,Calm,Calm,-,N/A,,Clear,0,2012-10-05 02:54:00
11:54 PM,64.9,61.0,87,30.12,9.0,Calm,Calm,-,N/A,,Clear,0,2012-10-05 03:54:00